Time;durP1;ratioP1;P1;durP2;ratioP2;P2;SDS_P1;SDS_P2;PMS_P1;PMS_P2;Temp;Humidity;BMP_temperature;BMP_pressure;BME280_temperature;BME280_humidity;BME280_pressure;Samples;Min_cycle;Max_cycle;Signal;HPM_P1;HPM_P2
2022/03/09 00:03:21;;;;;;;42.42;18.20;;;;;;;;;;10340268;28;20042;-67
2022/03/09 00:08:24;;;;;;;31.00;15.15;;;;;;;;;;10316525;28;20361;-67
2022/03/09 00:13:27;;;;;;;41.03;15.05;;;;;;;;;;10319339;28;20203;-68
2022/03/09 00:18:29;;;;;;;36.08;13.60;;;;;;;;;;10354396;28;20222;-67
2022/03/09 00:23:33;;;;;;;36.70;14.18;;;;;;;;;;10318040;28;20039;-67
2022/03/09 00:28:35;;;;;;;27.98;12.68;;;;;;;;;;10345076;28;20039;-67
2022/03/09 00:33:38;;;;;;;25.50;13.07;;;;;;;;;;10353959;28;20049;-67
2022/03/09 00:38:42;;;;;;;34.60;14.52;;;;;;;;;;10315438;28;20242;-68
2022/03/09 00:43:45;;;;;;;35.63;16.48;;;;;;;;;;10340050;28;20262;-67
2022/03/09 00:48:47;;;;;;;35.83;16.10;;;;;;;;;;10354992;28;20058;-67
2022/03/09 00:53:51;;;;;;;31.50;16.70;;;;;;;;;;10356354;28;20384;-67
2022/03/09 00:58:53;;;;;;;42.97;18.15;;;;;;;;;;10331052;28;20047;-67
2022/03/09 01:03:55;;;;;;;36.00;17.27;;;;;;;;;;10331225;28;20345;-68
2022/03/09 01:09:01;;;;;;;43.95;18.27;;;;;;;;;;10339634;28;20046;-68
2022/03/09 01:14:03;;;;;;;39.58;18.63;;;;;;;;;;10367521;28;20055;-67
2022/03/09 01:19:06;;;;;;;38.97;17.83;;;;;;;;;;10318562;28;20058;-67
2022/03/09 01:24:10;;;;;;;34.47;17.73;;;;;;;;;;10313806;28;20043;-67
2022/03/09 01:29:12;;;;;;;39.33;17.73;;;;;;;;;;10340786;28;20050;-67
2022/03/09 01:34:14;;;;;;;37.63;18.17;;;;;;;;;;10343864;28;20398;-67
2022/03/09 01:39:18;;;;;;;37.97;18.02;;;;;;;;;;10299164;28;20067;-67
2022/03/09 01:44:22;;;;;;;42.50;18.75;;;;;;;;;;10341593;28;20047;-67
2022/03/09 01:49:25;;;;;;;32.15;17.35;;;;;;;;;;10313619;28;20042;-67
2022/03/09 01:54:30;;;;;;;38.85;17.33;;;;;;;;;;10313977;28;20049;-67
2022/03/09 01:59:33;;;;;;;38.22;18.05;;;;;;;;;;10313557;28;20065;-68
2022/03/09 02:04:35;;;;;;;34.17;17.70;;;;;;;;;;10311081;28;20058;-66
2022/03/09 02:09:43;;;;;;;39.67;17.70;;;;;;;;;;10316077;28;20061;-67
2022/03/09 02:14:48;;;;;;;31.95;15.55;;;;;;;;;;10335361;28;20038;-68
2022/03/09 02:19:52;;;;;;;32.38;15.70;;;;;;;;;;10359565;28;20061;-67
2022/03/09 02:24:56;;;;;;;39.65;17.75;;;;;;;;;;10336137;28;20055;-66
2022/03/09 02:29:59;;;;;;;40.45;17.67;;;;;;;;;;10311934;28;20051;-68
2022/03/09 02:35:02;;;;;;;43.25;19.33;;;;;;;;;;10295197;28;20062;-68
2022/03/09 02:40:08;;;;;;;47.53;19.73;;;;;;;;;;10331063;28;20050;-67
2022/03/09 02:45:12;;;;;;;36.10;18.55;;;;;;;;;;10327176;28;20047;-67
2022/03/09 02:50:15;;;;;;;35.13;17.45;;;;;;;;;;10315357;28;20377;-67
2022/03/09 02:55:19;;;;;;;34.40;15.48;;;;;;;;;;10311912;28;20059;-67
2022/03/09 03:00:21;;;;;;;29.77;15.75;;;;;;;;;;10312975;28;20109;-67
2022/03/09 03:05:24;;;;;;;33.05;16.30;;;;;;;;;;10310077;28;20077;-68
2022/03/09 03:10:28;;;;;;;37.92;15.73;;;;;;;;;;10311872;28;20043;-68
2022/03/09 03:15:30;;;;;;;35.63;15.77;;;;;;;;;;10342436;28;20054;-67
2022/03/09 03:20:32;;;;;;;28.02;14.48;;;;;;;;;;10350030;28;20050;-68
2022/03/09 03:25:36;;;;;;;31.30;15.35;;;;;;;;;;10310768;28;20047;-68
2022/03/09 03:30:38;;;;;;;36.55;17.20;;;;;;;;;;10297992;28;20039;-67
2022/03/09 03:35:41;;;;;;;32.10;15.85;;;;;;;;;;10300555;28;20066;-68
2022/03/09 03:40:45;;;;;;;38.88;18.92;;;;;;;;;;10274402;28;20138;-68
2022/03/09 03:45:47;;;;;;;34.90;17.63;;;;;;;;;;10309364;28;20045;-69
2022/03/09 03:50:50;;;;;;;32.15;16.35;;;;;;;;;;10352379;28;20058;-67
2022/03/09 03:55:53;;;;;;;36.25;16.60;;;;;;;;;;10301956;28;20050;-67
2022/03/09 04:00:56;;;;;;;27.27;15.15;;;;;;;;;;10310198;28;20058;-67
2022/03/09 04:05:58;;;;;;;31.42;15.40;;;;;;;;;;10309333;28;20368;-67
2022/03/09 04:11:02;;;;;;;35.50;15.38;;;;;;;;;;10325795;28;20046;-66
2022/03/09 04:16:04;;;;;;;33.38;16.38;;;;;;;;;;10350482;28;20373;-67
2022/03/09 04:21:07;;;;;;;32.22;15.52;;;;;;;;;;10316207;28;20338;-67
2022/03/09 04:26:11;;;;;;;31.45;16.52;;;;;;;;;;10309927;28;20050;-67
2022/03/09 04:31:13;;;;;;;32.15;15.23;;;;;;;;;;10309214;28;20089;-67
2022/03/09 04:36:16;;;;;;;37.83;17.00;;;;;;;;;;10308902;28;20053;-67
2022/03/09 04:41:20;;;;;;;41.65;18.85;;;;;;;;;;10309572;28;20050;-67
2022/03/09 04:46:22;;;;;;;39.97;19.63;;;;;;;;;;10309349;28;20057;-67
2022/03/09 04:51:25;;;;;;;50.50;20.52;;;;;;;;;;10338934;28;20097;-67
2022/03/09 04:56:28;;;;;;;45.13;20.05;;;;;;;;;;10356448;28;20042;-67
2022/03/09 05:01:31;;;;;;;51.33;21.17;;;;;;;;;;10357146;28;20038;-67
2022/03/09 05:06:33;;;;;;;46.55;19.90;;;;;;;;;;10330898;28;20372;-67
2022/03/09 05:11:36;;;;;;;43.70;20.00;;;;;;;;;;10339368;28;20097;-67
2022/03/09 05:16:39;;;;;;;56.72;23.73;;;;;;;;;;10355231;28;20038;-67
2022/03/09 05:21:42;;;;;;;90.53;30.30;;;;;;;;;;10331424;28;20049;-67
2022/03/09 05:26:47;;;;;;;82.43;29.40;;;;;;;;;;10338193;28;20054;-67
2022/03/09 05:31:49;;;;;;;93.57;35.00;;;;;;;;;;10354626;28;20050;-67
2022/03/09 05:36:53;;;;;;;56.47;24.70;;;;;;;;;;10331522;28;20098;-67
2022/03/09 05:41:56;;;;;;;50.58;21.13;;;;;;;;;;10314448;28;20050;-68
2022/03/09 05:46:59;;;;;;;73.53;30.08;;;;;;;;;;10331999;28;20046;-68
2022/03/09 05:52:01;;;;;;;34.33;17.48;;;;;;;;;;10355596;28;20052;-68
2022/03/09 05:57:05;;;;;;;40.15;20.08;;;;;;;;;;10353749;28;20345;-67
2022/03/09 06:02:07;;;;;;;46.28;22.30;;;;;;;;;;10335602;28;20050;-68
2022/03/09 06:07:10;;;;;;;43.03;21.48;;;;;;;;;;10328950;28;20051;-68
2022/03/09 06:12:15;;;;;;;41.15;21.35;;;;;;;;;;10334331;28;20322;-68
2022/03/09 06:17:17;;;;;;;37.42;17.92;;;;;;;;;;10313852;28;20054;-67
2022/03/09 06:22:20;;;;;;;36.85;19.00;;;;;;;;;;10312802;28;20042;-68
2022/03/09 06:27:24;;;;;;;38.30;19.50;;;;;;;;;;10309470;28;20043;-69
2022/03/09 06:32:26;;;;;;;33.05;16.88;;;;;;;;;;10286342;28;20082;-68
2022/03/09 06:37:29;;;;;;;39.75;19.92;;;;;;;;;;10320116;28;20076;-68
2022/03/09 06:42:33;;;;;;;26.37;18.50;;;;;;;;;;10312595;28;20050;-68
2022/03/09 06:47:38;;;;;;;28.15;19.80;;;;;;;;;;10332380;28;20241;-69
2022/03/09 06:52:41;;;;;;;19.70;16.05;;;;;;;;;;10364721;28;20254;-68
2022/03/09 06:57:44;;;;;;;22.08;16.05;;;;;;;;;;10323348;28;20241;-67
2022/03/09 07:02:47;;;;;;;22.27;15.63;;;;;;;;;;10312565;28;20048;-66
2022/03/09 07:07:50;;;;;;;19.27;15.35;;;;;;;;;;10318365;28;20050;-68
2022/03/09 07:12:54;;;;;;;22.90;17.33;;;;;;;;;;10345142;28;20057;-67
2022/03/09 07:17:56;;;;;;;29.98;22.55;;;;;;;;;;10288683;28;20214;-67
2022/03/09 07:22:59;;;;;;;16.63;14.82;;;;;;;;;;10313052;28;20046;-68
2022/03/09 07:28:03;;;;;;;20.95;16.13;;;;;;;;;;10344618;28;20070;-67
2022/03/09 07:33:05;;;;;;;14.77;12.35;;;;;;;;;;10349797;28;20043;-68
2022/03/09 07:38:10;;;;;;;14.48;11.82;;;;;;;;;;10302356;28;20089;-67
2022/03/09 07:43:14;;;;;;;18.63;12.23;;;;;;;;;;10339410;28;20042;-67
2022/03/09 07:48:16;;;;;;;18.20;12.25;;;;;;;;;;10350064;28;20346;-67
2022/03/09 07:53:19;;;;;;;18.58;12.70;;;;;;;;;;10313464;28;20046;-67
2022/03/09 07:58:23;;;;;;;14.65;11.90;;;;;;;;;;10310070;28;20038;-67
2022/03/09 08:03:25;;;;;;;18.08;12.85;;;;;;;;;;10310604;28;20049;-67
2022/03/09 08:08:27;;;;;;;14.00;11.15;;;;;;;;;;10280792;28;20506;-68
2022/03/09 08:13:31;;;;;;;15.13;11.15;;;;;;;;;;10289510;28;20043;-68
2022/03/09 08:18:34;;;;;;;16.55;11.15;;;;;;;;;;10309222;28;20050;-67
2022/03/09 08:23:37;;;;;;;14.38;10.50;;;;;;;;;;10315029;28;20042;-68
2022/03/09 08:28:40;;;;;;;12.05;9.95;;;;;;;;;;10318006;28;20051;-66
2022/03/09 08:33:43;;;;;;;37.58;28.98;;;;;;;;;;10317118;28;20073;-67
2022/03/09 08:38:45;;;;;;;15.23;10.20;;;;;;;;;;10315922;28;20417;-68
2022/03/09 08:43:49;;;;;;;12.77;10.13;;;;;;;;;;10316517;28;20069;-68
2022/03/09 08:48:51;;;;;;;14.32;11.30;;;;;;;;;;10287008;28;20050;-67
2022/03/09 08:53:55;;;;;;;18.38;12.43;;;;;;;;;;10351244;28;20113;-68
2022/03/09 08:58:59;;;;;;;16.13;11.68;;;;;;;;;;10316562;28;20046;-68
2022/03/09 09:04:01;;;;;;;17.75;12.07;;;;;;;;;;10318697;28;20042;-68
2022/03/09 09:09:04;;;;;;;15.27;11.68;;;;;;;;;;10346617;28;20054;-68
2022/03/09 09:14:07;;;;;;;18.13;11.32;;;;;;;;;;10333028;28;20050;-67
2022/03/09 09:19:10;;;;;;;17.92;11.35;;;;;;;;;;10301805;28;20274;-68
2022/03/09 09:24:13;;;;;;;13.90;12.20;;;;;;;;;;10315177;28;20090;-67
2022/03/09 09:29:17;;;;;;;18.77;13.40;;;;;;;;;;10344260;28;20069;-68
2022/03/09 09:34:19;;;;;;;17.70;13.07;;;;;;;;;;10329623;28;20087;-68
2022/03/09 09:39:23;;;;;;;18.63;14.20;;;;;;;;;;10313583;28;20069;-66
2022/03/09 09:44:26;;;;;;;20.02;15.63;;;;;;;;;;10322027;28;20222;-68
2022/03/09 09:49:34;;;;;;;27.47;16.87;;;;;;;;;;10321811;28;20051;-67
2022/03/09 09:54:37;;;;;;;24.10;16.45;;;;;;;;;;10345682;28;20355;-68
2022/03/09 09:59:42;;;;;;;30.55;19.58;;;;;;;;;;10344854;28;20042;-67
2022/03/09 10:04:46;;;;;;;32.90;19.13;;;;;;;;;;10314168;28;20059;-67
2022/03/09 10:09:49;;;;;;;27.13;17.15;;;;;;;;;;10314685;28;20055;-68
2022/03/09 10:14:54;;;;;;;27.48;14.82;;;;;;;;;;10336723;28;20043;-67
2022/03/09 10:19:58;;;;;;;28.90;17.13;;;;;;;;;;10312349;28;20070;-68
2022/03/09 10:25:16;;;;;;;26.40;16.77;;;;;;;;;;10350182;28;20046;-67
2022/03/09 10:30:22;;;;;;;28.13;17.55;;;;;;;;;;10309610;28;20111;-66
2022/03/09 10:35:43;;;;;;;28.13;17.30;;;;;;;;;;10316663;28;20063;-68
2022/03/09 10:40:47;;;;;;;23.63;15.07;;;;;;;;;;10286346;28;20063;-66
2022/03/09 10:46:06;;;;;;;21.67;14.25;;;;;;;;;;10296805;28;20127;-68
2022/03/09 10:51:08;;;;;;;28.05;14.70;;;;;;;;;;10286089;28;20047;-67
2022/03/09 10:56:20;;;;;;;23.63;13.02;;;;;;;;;;10311823;28;20050;-68
2022/03/09 11:01:25;;;;;;;26.40;14.93;;;;;;;;;;10295595;28;20050;-67
2022/03/09 11:06:27;;;;;;;23.88;13.35;;;;;;;;;;10311839;28;20047;-68
2022/03/09 11:11:32;;;;;;;22.65;14.05;;;;;;;;;;10351243;28;20046;-67
2022/03/09 11:16:35;;;;;;;17.17;11.48;;;;;;;;;;10311981;28;20051;-67
2022/03/09 11:21:39;;;;;;;21.90;12.80;;;;;;;;;;10311381;28;20050;-67
2022/03/09 11:26:45;;;;;;;20.35;11.43;;;;;;;;;;10352097;28;20058;-67
2022/03/09 11:31:51;;;;;;;20.83;11.40;;;;;;;;;;10285069;28;20054;-67
2022/03/09 11:36:58;;;;;;;14.50;9.80;;;;;;;;;;10339754;28;20059;-67
2022/03/09 11:42:28;;;;;;;17.08;9.85;;;;;;;;;;10361941;28;20035;-67
2022/03/09 11:48:03;;;;;;;20.23;11.45;;;;;;;;;;10310336;28;20338;-67
2022/03/09 11:53:08;;;;;;;14.43;9.82;;;;;;;;;;10323730;28;20049;-67
2022/03/09 11:58:12;;;;;;;20.93;11.43;;;;;;;;;;10341354;28;20050;-68
2022/03/09 12:03:38;;;;;;;18.48;10.38;;;;;;;;;;10319230;28;20046;-68
2022/03/09 12:08:47;;;;;;;15.50;9.25;;;;;;;;;;10320028;28;20051;-67
2022/03/09 12:13:49;;;;;;;19.92;11.65;;;;;;;;;;10336827;28;20046;-67
2022/03/09 12:19:14;;;;;;;17.80;10.77;;;;;;;;;;10324058;28;20269;-68
2022/03/09 12:24:21;;;;;;;16.47;10.00;;;;;;;;;;10371933;28;20097;-68
2022/03/09 12:29:38;;;;;;;18.45;10.00;;;;;;;;;;10359758;28;20046;-67
2022/03/09 12:34:43;;;;;;;32.22;11.68;;;;;;;;;;10348825;28;20207;-68
2022/03/09 12:39:55;;;;;;;17.00;9.48;;;;;;;;;;10332004;28;20287;-66
2022/03/09 12:44:59;;;;;;;15.85;10.20;;;;;;;;;;10329816;28;20050;-67
2022/03/09 12:50:03;;;;;;;13.02;7.63;;;;;;;;;;10326107;28;20046;-68
2022/03/09 12:55:06;;;;;;;16.95;9.93;;;;;;;;;;10348651;28;20058;-66
2022/03/09 13:00:13;;;;;;;14.23;8.95;;;;;;;;;;10317925;28;20086;-68
2022/03/09 13:05:20;;;;;;;15.45;7.97;;;;;;;;;;10332429;28;20042;-68
2022/03/09 13:10:23;;;;;;;14.93;8.50;;;;;;;;;;10338214;28;20057;-68
2022/03/09 13:15:37;;;;;;;14.93;8.13;;;;;;;;;;10330450;28;20049;-68
2022/03/09 13:20:43;;;;;;;21.67;11.00;;;;;;;;;;10349153;28;20042;-67
2022/03/09 13:25:45;;;;;;;20.13;9.85;;;;;;;;;;10339983;28;20042;-69
2022/03/09 13:30:52;;;;;;;18.88;11.10;;;;;;;;;;10356398;28;20050;-67
2022/03/09 13:35:56;;;;;;;20.65;11.85;;;;;;;;;;10317777;28;20055;-68
2022/03/09 13:41:03;;;;;;;15.57;10.15;;;;;;;;;;10314854;28;20064;-67
2022/03/09 13:46:13;;;;;;;19.58;9.52;;;;;;;;;;10351166;28;20050;-68
2022/03/09 13:51:16;;;;;;;20.15;10.02;;;;;;;;;;10352486;28;20042;-67
2022/03/09 13:56:21;;;;;;;17.30;8.55;;;;;;;;;;10314240;28;20043;-68
2022/03/09 14:01:31;;;;;;;20.77;12.70;;;;;;;;;;10314439;28;20216;-67
2022/03/09 14:06:36;;;;;;;12.80;8.88;;;;;;;;;;10326534;28;20050;-68
2022/03/09 14:11:39;;;;;;;13.25;8.90;;;;;;;;;;10362338;28;20050;-68
2022/03/09 14:16:43;;;;;;;13.57;8.75;;;;;;;;;;10355797;28;20065;-68
2022/03/09 14:21:51;;;;;;;11.95;6.75;;;;;;;;;;10331187;28;20058;-68
2022/03/09 14:26:54;;;;;;;12.73;7.10;;;;;;;;;;10328858;28;20058;-67
2022/03/09 14:31:56;;;;;;;15.80;8.27;;;;;;;;;;10316466;28;20058;-68
2022/03/09 14:37:01;;;;;;;13.50;7.90;;;;;;;;;;10304851;28;20066;-68
2022/03/09 14:42:03;;;;;;;20.33;10.47;;;;;;;;;;10314049;28;20058;-68
2022/03/09 14:47:09;;;;;;;17.73;8.60;;;;;;;;;;10346394;28;20051;-68
2022/03/09 14:52:13;;;;;;;18.85;9.57;;;;;;;;;;10322964;28;20062;-68
2022/03/09 14:57:15;;;;;;;17.70;9.77;;;;;;;;;;10312881;28;20042;-67
2022/03/09 15:02:18;;;;;;;18.35;10.40;;;;;;;;;;10304278;28;20323;-67
2022/03/09 15:07:25;;;;;;;15.43;9.30;;;;;;;;;;10304188;28;20297;-68
2022/03/09 15:12:27;;;;;;;16.95;8.52;;;;;;;;;;10312718;28;20085;-67
2022/03/09 15:17:30;;;;;;;17.05;8.43;;;;;;;;;;10312921;28;20101;-67
2022/03/09 15:22:34;;;;;;;12.27;7.47;;;;;;;;;;10342028;28;20241;-68
2022/03/09 15:27:36;;;;;;;13.80;7.45;;;;;;;;;;10334993;28;20039;-67
2022/03/09 15:32:39;;;;;;;16.55;9.55;;;;;;;;;;10341458;28;20085;-68
2022/03/09 15:37:43;;;;;;;13.70;7.60;;;;;;;;;;10294352;28;20354;-68
2022/03/09 15:42:46;;;;;;;16.43;8.23;;;;;;;;;;10318110;28;20046;-68
2022/03/09 15:47:48;;;;;;;14.68;7.28;;;;;;;;;;10351628;28;20046;-67
2022/03/09 15:52:53;;;;;;;20.38;7.90;;;;;;;;;;10321602;28;20046;-68
2022/03/09 15:57:57;;;;;;;14.38;7.40;;;;;;;;;;10312106;28;20047;-68
2022/03/09 16:02:59;;;;;;;18.75;8.73;;;;;;;;;;10310571;28;20062;-67
2022/03/09 16:08:03;;;;;;;21.33;9.60;;;;;;;;;;10312102;28;20063;-69
2022/03/09 16:13:06;;;;;;;18.23;8.63;;;;;;;;;;10297656;28;20058;-69
2022/03/09 16:18:08;;;;;;;27.70;11.30;;;;;;;;;;10316446;28;20042;-68
2022/03/09 16:23:12;;;;;;;28.50;12.57;;;;;;;;;;10327887;28;20069;-68
2022/03/09 16:28:15;;;;;;;26.58;14.55;;;;;;;;;;10311628;28;20114;-68
2022/03/09 16:33:17;;;;;;;24.33;11.02;;;;;;;;;;10311463;28;20392;-68
2022/03/09 16:38:22;;;;;;;23.58;10.90;;;;;;;;;;10311257;28;20046;-69
2022/03/09 16:43:25;;;;;;;24.87;10.63;;;;;;;;;;10331659;28;20053;-67
2022/03/09 16:48:28;;;;;;;30.33;11.88;;;;;;;;;;10357331;28;20057;-67
2022/03/09 16:53:31;;;;;;;21.80;11.60;;;;;;;;;;10350762;28;20042;-67
2022/03/09 16:58:34;;;;;;;31.17;11.07;;;;;;;;;;10338091;28;20050;-67
2022/03/09 17:03:36;;;;;;;36.85;15.82;;;;;;;;;;10317687;28;20051;-68
2022/03/09 17:08:40;;;;;;;29.38;14.27;;;;;;;;;;10312466;28;20051;-67
2022/03/09 17:13:42;;;;;;;31.63;13.55;;;;;;;;;;10316554;28;20081;-68
2022/03/09 17:18:45;;;;;;;24.73;11.57;;;;;;;;;;10315561;28;20066;-67
2022/03/09 17:23:49;;;;;;;23.67;11.75;;;;;;;;;;10314197;28;20051;-67
2022/03/09 17:28:51;;;;;;;27.77;11.38;;;;;;;;;;10316749;28;20043;-68
2022/03/09 17:33:55;;;;;;;22.38;10.80;;;;;;;;;;10313302;28;20042;-67
2022/03/09 17:38:59;;;;;;;22.27;9.85;;;;;;;;;;10312767;28;20338;-69
2022/03/09 17:44:02;;;;;;;22.50;11.50;;;;;;;;;;10316145;28;20101;-67
2022/03/09 17:49:04;;;;;;;21.63;9.90;;;;;;;;;;10316249;28;20085;-68
2022/03/09 17:54:08;;;;;;;19.92;9.25;;;;;;;;;;10310792;28;20066;-68
2022/03/09 17:59:10;;;;;;;17.42;9.25;;;;;;;;;;10314984;28;20124;-68
2022/03/09 18:04:14;;;;;;;19.85;8.20;;;;;;;;;;10315921;28;20050;-67
2022/03/09 18:09:17;;;;;;;19.30;8.55;;;;;;;;;;10312760;28;20038;-68
2022/03/09 18:14:20;;;;;;;16.20;7.03;;;;;;;;;;10314716;28;20046;-68
2022/03/09 18:19:22;;;;;;;17.85;7.05;;;;;;;;;;10313019;28;20039;-67
2022/03/09 18:24:27;;;;;;;13.57;6.45;;;;;;;;;;10310116;28;20039;-68
2022/03/09 18:29:29;;;;;;;18.70;8.20;;;;;;;;;;10313567;28;20050;-68
2022/03/09 18:34:31;;;;;;;24.73;11.40;;;;;;;;;;10312702;28;20086;-68
2022/03/09 18:39:35;;;;;;;25.35;11.73;;;;;;;;;;10309027;28;20358;-67
2022/03/09 18:44:38;;;;;;;20.65;9.02;;;;;;;;;;10312346;28;20046;-67
2022/03/09 18:49:40;;;;;;;23.77;9.13;;;;;;;;;;10310582;28;20054;-67
2022/03/09 18:54:44;;;;;;;19.95;8.60;;;;;;;;;;10310696;28;20238;-67
2022/03/09 18:59:46;;;;;;;21.35;9.32;;;;;;;;;;10311836;28;20061;-68
2022/03/09 19:04:49;;;;;;;22.83;9.90;;;;;;;;;;10311619;28;20172;-68
2022/03/09 19:09:52;;;;;;;22.75;10.75;;;;;;;;;;10309915;28;20042;-68
2022/03/09 19:14:55;;;;;;;20.70;10.85;;;;;;;;;;10312287;28;20038;-69
2022/03/09 19:19:58;;;;;;;20.58;9.43;;;;;;;;;;10310056;28;20143;-68
2022/03/09 19:25:02;;;;;;;18.48;9.32;;;;;;;;;;10311443;28;20070;-67
2022/03/09 19:30:05;;;;;;;25.33;10.95;;;;;;;;;;10311338;28;20093;-68
2022/03/09 19:35:09;;;;;;;21.90;9.65;;;;;;;;;;10307390;28;20063;-69
2022/03/09 19:40:14;;;;;;;23.58;11.23;;;;;;;;;;10324842;28;20055;-68
2022/03/09 19:45:17;;;;;;;19.87;9.33;;;;;;;;;;10310558;28;20057;-68
2022/03/09 19:50:20;;;;;;;20.67;10.45;;;;;;;;;;10309480;28;20619;-67
2022/03/09 19:55:24;;;;;;;23.55;10.32;;;;;;;;;;10310154;28;20200;-68
2022/03/09 20:00:28;;;;;;;22.03;9.97;;;;;;;;;;10309232;28;20275;-68
2022/03/09 20:05:31;;;;;;;25.80;11.85;;;;;;;;;;10311339;28;20106;-67
2022/03/09 20:10:35;;;;;;;27.55;10.52;;;;;;;;;;10309145;28;20207;-68
2022/03/09 20:15:37;;;;;;;26.10;11.25;;;;;;;;;;10310505;28;20058;-67
2022/03/09 20:20:40;;;;;;;22.25;11.30;;;;;;;;;;10313080;28;20042;-68
2022/03/09 20:25:43;;;;;;;29.20;12.20;;;;;;;;;;10317408;28;20101;-67
2022/03/09 20:30:46;;;;;;;33.05;12.98;;;;;;;;;;10317948;28;20080;-67
2022/03/09 20:35:49;;;;;;;32.10;11.88;;;;;;;;;;10317742;28;20075;-67
2022/03/09 20:40:53;;;;;;;27.67;11.73;;;;;;;;;;10315190;28;20034;-66
2022/03/09 20:45:57;;;;;;;26.77;11.70;;;;;;;;;;10317734;28;20038;-67
2022/03/09 20:50:59;;;;;;;22.73;11.75;;;;;;;;;;10317317;28;20050;-67
2022/03/09 20:56:03;;;;;;;26.95;11.73;;;;;;;;;;10315381;28;20234;-69
2022/03/09 21:01:05;;;;;;;25.17;11.93;;;;;;;;;;10316997;28;20047;-67
2022/03/09 21:06:08;;;;;;;24.35;12.05;;;;;;;;;;10315892;28;20051;-67
2022/03/09 21:11:11;;;;;;;25.05;12.23;;;;;;;;;;10316647;28;20047;-68
2022/03/09 21:16:14;;;;;;;34.97;13.60;;;;;;;;;;10315473;28;20054;-68
2022/03/09 21:21:16;;;;;;;29.98;12.38;;;;;;;;;;10316040;28;20054;-67
2022/03/09 21:26:20;;;;;;;26.70;12.15;;;;;;;;;;10316025;28;20058;-68
2022/03/09 21:31:24;;;;;;;23.90;12.07;;;;;;;;;;10314070;28;20226;-67
2022/03/09 21:36:27;;;;;;;23.92;12.73;;;;;;;;;;10314881;28;20054;-68
2022/03/09 21:41:31;;;;;;;26.75;12.75;;;;;;;;;;10315182;28;20051;-67
2022/03/09 21:46:34;;;;;;;24.15;12.27;;;;;;;;;;10314552;28;20039;-66
2022/03/09 21:51:36;;;;;;;26.35;12.57;;;;;;;;;;10313888;28;20055;-68
2022/03/09 21:56:39;;;;;;;25.38;12.63;;;;;;;;;;10314652;28;20326;-68
2022/03/09 22:01:42;;;;;;;24.85;14.13;;;;;;;;;;10313251;28;20095;-67
2022/03/09 22:06:44;;;;;;;28.98;13.95;;;;;;;;;;10300106;28;20039;-67
2022/03/09 22:11:48;;;;;;;22.90;12.00;;;;;;;;;;10297446;28;20053;-67
2022/03/09 22:16:50;;;;;;;32.83;14.85;;;;;;;;;;10313729;28;20089;-67
2022/03/09 22:21:54;;;;;;;29.58;13.85;;;;;;;;;;10301456;28;20055;-67
2022/03/09 22:26:58;;;;;;;26.25;14.50;;;;;;;;;;10313602;28;20046;-68
2022/03/09 22:32:02;;;;;;;29.83;14.95;;;;;;;;;;10313863;28;20098;-67
2022/03/09 22:37:05;;;;;;;30.50;15.25;;;;;;;;;;10313468;28;20246;-67
2022/03/09 22:42:09;;;;;;;21.92;12.27;;;;;;;;;;10348119;28;20046;-67
2022/03/09 22:47:11;;;;;;;26.08;13.15;;;;;;;;;;10345162;28;20068;-67
2022/03/09 22:52:13;;;;;;;20.65;13.05;;;;;;;;;;10352130;28;20084;-69
2022/03/09 22:57:17;;;;;;;27.63;14.32;;;;;;;;;;10351372;28;20046;-69
2022/03/09 23:02:19;;;;;;;18.98;12.30;;;;;;;;;;10316633;28;20265;-67
2022/03/09 23:07:21;;;;;;;25.38;12.50;;;;;;;;;;10311290;28;20330;-68
2022/03/09 23:12:25;;;;;;;25.08;14.32;;;;;;;;;;10309645;28;20114;-68
2022/03/09 23:17:28;;;;;;;23.58;14.20;;;;;;;;;;10271708;29;20065;-68
2022/03/09 23:22:30;;;;;;;22.90;14.65;;;;;;;;;;10284179;28;20050;-68
2022/03/09 23:27:34;;;;;;;23.33;15.05;;;;;;;;;;10293325;28;20047;-67
2022/03/09 23:32:37;;;;;;;23.55;13.65;;;;;;;;;;10284755;28;20233;-69
2022/03/09 23:37:43;;;;;;;25.33;15.20;;;;;;;;;;10322643;28;20380;-69
2022/03/09 23:42:47;;;;;;;26.08;16.52;;;;;;;;;;10359021;28;20042;-68
2022/03/09 23:47:49;;;;;;;30.40;17.55;;;;;;;;;;10334580;28;20080;-67
2022/03/09 23:52:52;;;;;;;26.80;16.50;;;;;;;;;;10342627;28;20392;-67
2022/03/09 23:57:55;;;;;;;27.08;15.32;;;;;;;;;;10356945;28;20050;-68
